Time;durP1;ratioP1;P1;durP2;ratioP2;P2;SDS_P1;SDS_P2;PMS_P1;PMS_P2;Temp;Humidity;BMP_temperature;BMP_pressure;BME280_temperature;BME280_humidity;BME280_pressure;Samples;Min_cycle;Max_cycle;Signal;HPM_P1;HPM_P2
2021/10/22 00:02:16;;;;;;;;;17.50;16.25;;;;;9.96;64.57;101679.19;5061801;28;46274;-82
2021/10/22 00:04:42;;;;;;;;;20.75;17.00;;;;;10.09;64.27;101712.78;5072380;28;45327;-83
2021/10/22 00:07:07;;;;;;;;;16.00;16.00;;;;;10.09;64.25;101715.38;5062498;28;45426;-82
2021/10/22 00:09:33;;;;;;;;;19.25;16.50;;;;;9.91;64.36;101684.97;5059813;28;45561;-82
2021/10/22 00:11:58;;;;;;;;;19.00;14.75;;;;;10.07;64.10;101712.66;5058860;28;46083;-83
2021/10/22 00:14:24;;;;;;;;;13.75;10.50;;;;;9.96;64.69;101699.88;5062101;28;45355;-82
2021/10/22 00:16:50;;;;;;;;;19.00;15.75;;;;;9.86;64.48;101680.31;5061986;28;45257;-82
2021/10/22 00:19:15;;;;;;;;;19.00;16.25;;;;;9.76;64.37;101671.09;5059064;28;45557;-82
2021/10/22 00:21:41;;;;;;;;;20.25;16.50;;;;;9.96;64.47;101708.53;5058672;28;46080;-83
2021/10/22 00:24:07;;;;;;;;;16.75;16.75;;;;;9.94;64.49;101706.66;5059099;28;45235;-83
2021/10/22 00:26:33;;;;;;;;;21.50;17.00;;;;;9.76;64.60;101676.28;5058556;28;45406;-83
2021/10/22 00:28:59;;;;;;;;;19.75;17.00;;;;;9.67;64.72;101676.59;5058447;28;45536;-82
2021/10/22 00:31:25;;;;;;;;;20.25;18.50;;;;;9.84;65.05;101705.16;5058267;28;45493;-83
2021/10/22 00:33:50;;;;;;;;;16.00;15.00;;;;;9.73;65.13;101689.00;5058482;28;45475;-82
2021/10/22 00:36:19;;;;;;;;;16.00;14.75;;;;;9.82;65.09;101702.50;5058118;28;45307;-83
2021/10/22 00:38:45;;;;;;;;;15.00;15.00;;;;;9.82;64.79;101704.22;5058255;28;45485;-83
2021/10/22 00:41:10;;;;;;;;;16.50;16.25;;;;;9.88;65.19;101715.81;5058206;28;46058;-83
2021/10/22 00:43:36;;;;;;;;;15.25;15.00;;;;;9.70;65.32;101687.13;5058100;28;45320;-83
2021/10/22 00:46:02;;;;;;;;;17.25;15.25;;;;;9.70;65.01;101699.16;5058404;28;45406;-82
2021/10/22 00:48:28;;;;;;;;;20.00;17.25;;;;;9.84;65.17;101718.09;5059329;28;45541;-82
2021/10/22 00:51:00;;;;;;;;;15.00;13.50;;;;;9.85;65.33;101718.22;5059453;28;45413;-82
2021/10/22 00:53:27;;;;;;;;;14.00;13.25;;;;;9.72;65.06;101692.38;5045969;28;45248;-82
2021/10/22 00:55:54;;;;;;;;;18.25;14.75;;;;;9.69;65.34;101695.69;5057865;28;45452;-82
2021/10/22 00:58:22;;;;;;;;;12.75;12.00;;;;;9.74;65.00;101703.72;5057034;28;45437;-83
2021/10/22 01:00:47;;;;;;;;;16.75;13.25;;;;;9.78;64.92;101718.63;5057538;28;46023;-81
2021/10/22 01:03:14;;;;;;;;;17.50;17.50;;;;;9.75;65.37;101713.28;5057550;28;45265;-82
2021/10/22 01:05:40;;;;;;;;;12.25;12.25;;;;;9.74;65.37;101717.53;5057279;28;45262;-82
2021/10/22 01:08:06;;;;;;;;;13.00;11.00;;;;;9.58;65.41;101689.81;5040465;28;45641;-83
2021/10/22 01:10:33;;;;;;;;;11.75;11.00;;;;;9.65;65.41;101705.75;5057333;28;45355;-82
2021/10/22 01:13:00;;;;;;;;;13.25;12.25;;;;;9.68;65.39;101708.50;5039354;28;45825;-82
2021/10/22 01:15:26;;;;;;;;;13.50;12.00;;;;;9.60;65.44;101698.56;5039401;28;45316;-82
2021/10/22 01:17:51;;;;;;;;;16.25;13.25;;;;;9.58;65.42;101694.09;5057830;28;45397;-83
2021/10/22 01:20:22;;;;;;;;;11.75;11.75;;;;;9.72;65.49;101723.41;5057021;28;45835;-82
2021/10/22 01:22:50;;;;;;;;;12.25;11.50;;;;;9.71;65.38;101721.63;5057371;28;45893;-83
2021/10/22 01:25:18;;;;;;;;;13.50;11.00;;;;;9.72;65.59;101726.00;5057474;28;45314;-83
2021/10/22 01:27:45;;;;;;;;;9.50;9.50;;;;;9.66;65.46;101713.56;5057907;28;45607;-82
2021/10/22 01:30:13;;;;;;;;;12.75;10.50;;;;;9.77;65.34;101727.19;5058288;28;46005;-82
2021/10/22 01:32:39;;;;;;;;;16.00;12.25;;;;;9.81;65.56;101728.28;5057803;28;45340;-82
2021/10/22 01:35:07;;;;;;;;;15.75;10.75;;;;;9.87;65.47;101736.41;5039639;28;45425;-82
2021/10/22 01:37:34;;;;;;;;;11.25;10.25;;;;;9.87;65.37;101732.16;5039989;28;45334;-83
2021/10/22 01:39:59;;;;;;;;;12.00;12.00;;;;;9.87;65.29;101739.91;5057091;28;45290;-83
2021/10/22 01:42:25;;;;;;;;;12.25;11.00;;;;;9.71;65.41;101709.59;5057580;28;45301;-83
2021/10/22 01:44:51;;;;;;;;;11.50;9.00;;;;;9.84;65.24;101736.22;5038562;28;45359;-83
2021/10/22 01:47:19;;;;;;;;;11.00;11.00;;;;;9.77;65.00;101724.63;5039310;28;47111;-83
2021/10/22 01:49:45;;;;;;;;;13.50;11.25;;;;;9.79;65.00;101735.03;5056924;28;46339;-83
2021/10/22 01:52:11;;;;;;;;;10.25;10.25;;;;;9.79;64.92;101735.91;5057269;28;45325;-83
2021/10/22 01:54:37;;;;;;;;;13.75;12.75;;;;;9.66;65.04;101716.16;5057540;28;45432;-82
2021/10/22 01:57:05;;;;;;;;;15.25;12.75;;;;;9.79;65.04;101737.63;5057491;28;45368;-82
2021/10/22 01:59:31;;;;;;;;;13.25;11.00;;;;;9.76;65.14;101736.63;5057113;28;45385;-83
2021/10/22 02:01:57;;;;;;;;;14.75;12.50;;;;;9.83;65.33;101740.50;5056812;28;45265;-82
2021/10/22 02:04:23;;;;;;;;;14.00;12.75;;;;;9.86;65.44;101739.78;5057042;28;45317;-83
2021/10/22 02:06:49;;;;;;;;;13.50;13.50;;;;;9.69;64.82;101716.38;5060711;28;45241;-83
2021/10/22 02:09:17;;;;;;;;;14.00;14.00;;;;;9.74;65.11;101722.69;5058993;27;46897;-82
2021/10/22 02:11:42;;;;;;;;;13.25;13.25;;;;;9.68;65.33;101713.66;5057238;28;45932;-83
2021/10/22 02:14:08;;;;;;;;;18.00;13.25;;;;;9.72;65.02;101723.41;5039472;28;45454;-83
2021/10/22 02:16:34;;;;;;;;;12.75;12.00;;;;;9.69;65.60;101713.78;5057115;28;45411;-83
2021/10/22 02:19:00;;;;;;;;;18.00;12.75;;;;;9.76;65.54;101735.75;5038598;28;46608;-83
2021/10/22 02:21:25;;;;;;;;;16.00;12.00;;;;;9.76;65.60;101731.47;5055894;28;45213;-83
2021/10/22 02:23:52;;;;;;;;;14.50;12.50;;;;;9.79;65.50;101735.91;5056434;28;45250;-86
2021/10/22 02:26:18;;;;;;;;;13.00;12.00;;;;;9.72;65.50;101732.06;5057029;28;45388;-86
2021/10/22 02:28:43;;;;;;;;;12.75;12.25;;;;;9.73;65.68;101731.25;5056730;28;45384;-86
2021/10/22 02:31:09;;;;;;;;;12.50;12.50;;;;;9.66;65.56;101715.28;5057151;28;45261;-86
2021/10/22 02:33:34;;;;;;;;;12.50;12.50;;;;;9.59;65.60;101703.66;5057388;28;45647;-83
2021/10/22 02:36:00;;;;;;;;;14.50;13.00;;;;;9.68;65.37;101719.75;5056367;28;45293;-83
2021/10/22 02:38:26;;;;;;;;;15.00;13.50;;;;;9.57;65.24;101700.94;5056801;28;45355;-84
2021/10/22 02:40:51;;;;;;;;;17.00;13.50;;;;;9.75;65.62;101728.78;5057140;28;45305;-83
2021/10/22 02:43:17;;;;;;;;;11.75;10.50;;;;;9.58;65.33;101717.38;5051990;28;45344;-82
2021/10/22 02:45:43;;;;;;;;;14.50;13.75;;;;;9.62;65.62;101733.97;5066258;28;45411;-82
2021/10/22 02:48:08;;;;;;;;;12.25;10.75;;;;;9.65;65.32;101744.53;5061375;28;46339;-83
2021/10/22 02:50:34;;;;;;;;;16.25;14.75;;;;;9.52;65.66;101727.31;5039110;28;45335;-83
2021/10/22 02:53:01;;;;;;;;;14.00;13.75;;;;;9.35;65.71;101709.03;5056756;28;45273;-83
2021/10/22 02:55:27;;;;;;;;;19.50;17.00;;;;;9.54;65.31;101757.66;5059468;28;45357;-82
2021/10/22 02:57:52;;;;;;;;;16.00;14.25;;;;;9.51;65.68;101751.38;5056565;28;46382;-85
2021/10/22 03:00:18;;;;;;;;;14.25;14.25;;;;;9.32;65.50;101724.34;5056178;28;45496;-82
2021/10/22 03:02:45;;;;;;;;;14.50;12.75;;;;;9.29;65.44;101726.72;5056130;28;45331;-82
2021/10/22 03:05:11;;;;;;;;;18.00;15.50;;;;;9.34;65.48;101742.56;5056012;28;45486;-84
2021/10/22 03:07:38;;;;;;;;;14.25;12.00;;;;;9.28;65.22;101736.19;5056293;28;45311;-83
2021/10/22 03:10:05;;;;;;;;;11.50;11.50;;;;;9.34;65.62;101750.31;5038489;28;45312;-82
2021/10/22 03:12:31;;;;;;;;;11.00;10.00;;;;;9.36;65.38;101749.59;5056927;28;45270;-83
2021/10/22 03:14:57;;;;;;;;;12.00;12.00;;;;;9.26;65.56;101740.34;5056565;28;45511;-82
2021/10/22 03:17:22;;;;;;;;;9.50;8.00;;;;;9.17;65.27;101725.97;5056663;28;46227;-82
2021/10/22 03:19:48;;;;;;;;;8.75;8.75;;;;;9.22;65.29;101727.13;5056870;28;45194;-82
2021/10/22 03:22:14;;;;;;;;;10.25;8.75;;;;;9.35;65.22;101758.16;5061664;28;45386;-82
2021/10/22 03:24:40;;;;;;;;;7.25;7.00;;;;;9.29;65.07;101747.41;5057388;28;45404;-83
2021/10/22 03:27:10;;;;;;;;;10.50;9.50;;;;;9.31;64.82;101758.72;5055752;28;45351;-82
2021/10/22 03:29:37;;;;;;;;;8.75;8.50;;;;;9.25;64.95;101748.88;5056219;28;45423;-82
2021/10/22 03:32:02;;;;;;;;;11.00;7.25;;;;;9.01;65.08;101722.34;5056355;28;45287;-83
2021/10/22 03:34:28;;;;;;;;;7.75;6.00;;;;;9.17;64.98;101755.25;5058682;28;45188;-83
2021/10/22 03:36:54;;;;;;;;;8.75;8.25;;;;;9.14;65.17;101752.47;5059140;28;46387;-82
2021/10/22 03:39:19;;;;;;;;;10.25;7.25;;;;;9.04;65.41;101738.06;5059790;28;45224;-81
2021/10/22 03:41:45;;;;;;;;;9.25;9.00;;;;;9.02;65.16;101736.16;5059062;28;45498;-82
2021/10/22 03:44:10;;;;;;;;;9.25;7.75;;;;;9.05;65.16;101741.53;5060057;28;45566;-84
2021/10/22 03:46:36;;;;;;;;;6.00;4.75;;;;;9.10;64.71;101745.31;5060742;28;45390;-84
2021/10/22 03:49:02;;;;;;;;;6.25;4.75;;;;;9.10;64.95;101750.50;5041475;28;45365;-82
2021/10/22 03:51:28;;;;;;;;;5.25;5.25;;;;;9.07;65.13;101745.09;5041465;28;45390;-82
2021/10/22 03:53:54;;;;;;;;;7.25;7.25;;;;;9.05;65.11;101757.03;5059324;28;45421;-82
2021/10/22 03:56:20;;;;;;;;;8.00;8.00;;;;;8.95;65.15;101724.53;5060350;28;45356;-82
2021/10/22 03:58:45;;;;;;;;;8.25;7.75;;;;;9.11;65.23;101754.88;5061610;28;45386;-82
2021/10/22 04:01:11;;;;;;;;;8.00;6.25;;;;;9.00;64.89;101746.38;5060443;28;45208;-82
2021/10/22 04:03:37;;;;;;;;;10.25;8.75;;;;;9.11;65.25;101760.03;5059528;28;45670;-81
2021/10/22 04:06:03;;;;;;;;;10.25;10.00;;;;;8.94;65.21;101723.63;5058813;28;46115;-81
2021/10/22 04:08:28;;;;;;;;;10.00;9.00;;;;;9.06;64.84;101746.81;5040688;28;45658;-82
2021/10/22 04:10:54;;;;;;;;;13.00;5.75;;;;;9.09;65.08;101756.44;5058765;28;45244;-82
2021/10/22 04:13:20;;;;;;;;;9.25;6.75;;;;;9.08;65.19;101752.06;5059106;28;45523;-82
2021/10/22 04:15:47;;;;;;;;;9.75;6.25;;;;;9.09;65.19;101752.16;5058150;28;46328;-83
2021/10/22 04:18:15;;;;;;;;;9.00;8.00;;;;;8.98;65.17;101733.38;5059017;28;45407;-82
2021/10/22 04:20:41;;;;;;;;;5.25;5.25;;;;;9.11;65.30;101757.44;5059137;28;45398;-82
2021/10/22 04:23:08;;;;;;;;;9.00;9.00;;;;;9.14;65.26;101760.22;5064129;28;45229;-83
2021/10/22 04:25:34;;;;;;;;;7.50;7.50;;;;;9.16;65.18;101760.34;5060600;28;47126;-83
2021/10/22 04:28:01;;;;;;;;;9.00;6.25;;;;;9.07;65.42;101751.16;5058318;28;45467;-83
2021/10/22 04:30:27;;;;;;;;;12.00;11.50;;;;;8.97;65.41;101729.00;5058616;28;45448;-82
2021/10/22 04:32:52;;;;;;;;;6.25;4.25;;;;;8.98;65.09;101738.56;5058990;28;45280;-83
2021/10/22 04:35:18;;;;;;;;;9.00;7.50;;;;;9.02;65.50;101762.88;5057604;28;46393;-82
2021/10/22 04:37:59;;;;;;;;;8.75;8.75;;;;;8.99;65.69;101757.50;5064098;28;45864;-83
2021/10/22 04:40:30;;;;;;;;;12.25;10.00;;;;;8.94;65.78;101758.91;5058758;28;45348;-83
2021/10/22 04:43:00;;;;;;;;;11.00;10.75;;;;;9.02;65.60;101777.47;5058567;28;45297;-83
2021/10/22 04:45:26;;;;;;;;;11.00;9.25;;;;;8.91;65.79;101758.69;5056825;28;45409;-83
2021/10/22 04:47:52;;;;;;;;;12.75;10.75;;;;;8.98;65.92;101778.97;5058176;28;45360;-83
2021/10/22 04:50:17;;;;;;;;;12.00;12.00;;;;;8.99;65.91;101780.75;5040489;28;45426;-83
2021/10/22 04:52:43;;;;;;;;;13.00;12.00;;;;;8.93;65.64;101783.81;5040217;28;45319;-83
2021/10/22 04:55:10;;;;;;;;;12.00;10.75;;;;;8.88;64.83;101777.47;5058102;28;46235;-83
2021/10/22 04:57:36;;;;;;;;;12.50;11.50;;;;;8.95;65.64;101802.03;5059713;28;45772;-83
2021/10/22 05:00:06;;;;;;;;;13.75;12.00;;;;;8.91;65.63;101802.59;5060723;28;45316;-81
2021/10/22 05:02:32;;;;;;;;;12.50;11.00;;;;;8.72;65.63;101779.78;5073040;28;44948;-82
2021/10/22 05:04:58;;;;;;;;;8.75;7.75;;;;;8.82;65.39;101802.84;5061779;28;45414;-83
2021/10/22 05:07:23;;;;;;;;;8.00;8.00;;;;;8.73;65.13;101792.81;5058462;28;45366;-82
2021/10/22 05:09:49;;;;;;;;;11.00;9.00;;;;;8.73;65.31;101805.75;5057734;28;45445;-83
2021/10/22 05:12:15;;;;;;;;;13.50;11.25;;;;;8.63;65.70;101793.00;5041968;28;45743;-83
2021/10/22 05:14:40;;;;;;;;;11.00;9.50;;;;;8.64;65.72;101797.34;5063158;28;46533;-83
2021/10/22 05:17:06;;;;;;;;;11.50;11.00;;;;;8.61;65.88;101781.66;5058424;28;45399;-83
2021/10/22 05:19:33;;;;;;;;;13.25;11.75;;;;;8.70;66.02;101794.28;5059463;28;45310;-85
2021/10/22 05:21:59;;;;;;;;;11.25;9.75;;;;;8.69;65.85;101793.41;5057084;28;45583;-83
2021/10/22 05:24:25;;;;;;;;;9.00;9.00;;;;;8.76;65.98;101802.47;5056948;28;46366;-83
2021/10/22 05:26:50;;;;;;;;;9.00;9.00;;;;;8.76;66.22;101798.19;5036477;28;45346;-84
2021/10/22 05:29:17;;;;;;;;;8.75;8.75;;;;;8.82;66.25;101797.69;5037527;28;45315;-83
2021/10/22 05:31:42;;;;;;;;;8.75;6.75;;;;;8.76;65.51;101793.00;5037391;28;45370;-83
2021/10/22 05:34:08;;;;;;;;;11.50;9.50;;;;;8.72;65.36;101780.72;5019047;28;47316;-83
2021/10/22 05:36:34;;;;;;;;;7.75;7.50;;;;;8.90;65.21;101809.47;5037242;28;45589;-83
2021/10/22 05:39:00;;;;;;;;;8.75;7.00;;;;;8.76;65.13;101793.00;5057361;28;45423;-83
2021/10/22 05:41:25;;;;;;;;;8.50;6.75;;;;;8.86;64.99;101810.03;5057810;28;45583;-83
2021/10/22 05:43:51;;;;;;;;;11.00;9.50;;;;;8.89;65.39;101806.75;5060568;28;45592;-83
2021/10/22 05:46:19;;;;;;;;;10.00;10.00;;;;;8.79;64.77;101788.06;5059740;28;45262;-83
2021/10/22 05:48:45;;;;;;;;;9.50;8.50;;;;;8.81;64.56;101806.22;5058314;28;45307;-84
2021/10/22 05:51:11;;;;;;;;;11.25;9.00;;;;;8.75;64.78;101792.91;5058358;28;45414;-83
2021/10/22 05:53:38;;;;;;;;;9.25;7.75;;;;;8.77;64.89;101793.94;5057028;28;46113;-83
2021/10/22 05:56:04;;;;;;;;;12.00;9.25;;;;;8.86;64.64;101804.88;5051935;28;45509;-84
2021/10/22 05:58:30;;;;;;;;;10.25;9.25;;;;;8.75;64.48;101795.50;5057232;28;45339;-84
2021/10/22 06:00:56;;;;;;;;;6.25;6.25;;;;;8.81;64.42;101816.56;5056740;28;45359;-83
2021/10/22 06:03:22;;;;;;;;;10.00;9.25;;;;;8.78;64.83;101821.53;5056020;28;45868;-82
2021/10/22 06:05:52;;;;;;;;;9.50;9.50;;;;;8.79;64.63;101813.88;5038311;28;45932;-82
2021/10/22 06:08:18;;;;;;;;;9.75;9.75;;;;;8.79;64.49;101825.91;5058260;28;45439;-86
2021/10/22 06:10:45;;;;;;;;;8.00;8.00;;;;;8.77;64.57;101824.91;5059764;28;45273;-84
2021/10/22 06:13:11;;;;;;;;;14.25;11.00;;;;;8.76;65.05;101816.25;5060636;28;45987;-81
2021/10/22 06:15:37;;;;;;;;;10.75;9.75;;;;;8.77;65.35;101812.88;5056569;28;45777;-81
2021/10/22 06:18:03;;;;;;;;;10.50;10.50;;;;;8.86;64.79;101819.44;5056700;28;45234;-83
2021/10/22 06:20:44;;;;;;;;;13.75;12.00;;;;;8.80;64.74;101813.09;5056392;28;45321;-86
2021/10/22 06:25:42;;;;;;;;;9.25;8.25;;;;;8.73;64.48;101805.75;5059031;28;45235;-84
2021/10/22 06:28:10;;;;;;;;;8.50;8.50;;;;;8.79;64.55;101819.06;5061654;28;45276;-85
2021/10/22 06:30:36;;;;;;;;;10.25;8.00;;;;;8.84;64.81;101827.09;5060287;28;45222;-79
2021/10/22 06:33:02;;;;;;;;;10.00;10.00;;;;;8.79;64.73;101824.22;5056357;28;45851;-79
2021/10/22 06:35:28;;;;;;;;;9.00;8.00;;;;;8.70;64.77;101805.53;5054882;28;45368;-79
2021/10/22 06:37:56;;;;;;;;;9.00;9.00;;;;;8.88;64.75;101843.69;5055160;28;45453;-77
2021/10/22 06:40:23;;;;;;;;;8.00;5.00;;;;;8.87;64.45;101850.56;5037641;28;45638;-78
2021/10/22 06:42:50;;;;;;;;;9.50;9.00;;;;;8.86;64.70;101853.94;5054238;28;46097;-79
2021/10/22 06:45:16;;;;;;;;;16.00;15.00;;;;;8.86;64.84;101866.84;5055363;28;45335;-76
2021/10/22 06:47:41;;;;;;;;;11.75;10.00;;;;;8.73;64.66;101848.72;5056179;28;45534;-84
2021/10/22 06:50:07;;;;;;;;;12.00;12.00;;;;;8.74;64.89;101856.59;5036160;28;45699;-84
2021/10/22 06:52:33;;;;;;;;;16.75;15.75;;;;;8.75;64.97;101858.34;5039959;28;46479;-82
2021/10/22 06:54:59;;;;;;;;;17.00;13.00;;;;;8.86;64.84;101874.59;5053110;28;45530;-77
2021/10/22 06:57:25;;;;;;;;;11.75;10.75;;;;;8.90;64.99;101884.38;5037427;28;45507;-78
2021/10/22 06:59:50;;;;;;;;;16.50;14.25;;;;;8.85;64.82;101871.94;5055884;28;45468;-78
2021/10/22 07:02:16;;;;;;;;;12.25;10.25;;;;;8.95;64.57;101885.56;5055516;28;45925;-76
2021/10/22 07:04:50;;;;;;;;;13.25;10.00;;;;;8.97;64.56;101877.91;5055362;28;45534;-76
2021/10/22 07:07:16;;;;;;;;;10.75;9.00;;;;;9.00;64.66;101882.41;5056099;28;45443;-77
2021/10/22 07:09:43;;;;;;;;;10.50;10.25;;;;;9.02;64.76;101885.97;5041446;28;45653;-76
2021/10/22 07:12:10;;;;;;;;;9.50;7.25;;;;;9.00;64.21;101892.75;5059135;28;45487;-77
2021/10/22 07:14:37;;;;;;;;;8.00;8.00;;;;;8.95;64.26;101888.16;5057947;28;46043;-77
2021/10/22 07:17:04;;;;;;;;;9.25;9.25;;;;;8.97;64.30;101889.16;5059118;28;45248;-76
2021/10/22 07:19:31;;;;;;;;;11.00;10.00;;;;;8.92;64.45;101877.59;5056793;28;45485;-77
2021/10/22 07:22:00;;;;;;;;;15.75;10.50;;;;;8.96;64.21;101884.78;5061697;28;45422;-78
2021/10/22 07:24:26;;;;;;;;;10.00;10.00;;;;;8.96;64.21;101886.47;5059107;28;45382;-79
2021/10/22 07:26:52;;;;;;;;;10.00;9.50;;;;;8.94;64.33;101888.06;5059237;28;45840;-79
2021/10/22 07:29:18;;;;;;;;;9.75;8.50;;;;;8.95;64.13;101875.22;5059080;28;45283;-78
2021/10/22 07:31:43;;;;;;;;;8.00;6.00;;;;;8.93;63.84;101878.50;5058906;28;45516;-78
2021/10/22 07:34:12;;;;;;;;;10.50;8.75;;;;;8.98;64.01;101890.03;5058748;28;45359;-80
2021/10/22 07:36:37;;;;;;;;;9.75;8.00;;;;;8.95;64.34;101882.97;5060606;28;45501;-78
2021/10/22 07:39:04;;;;;;;;;12.25;10.75;;;;;9.06;64.28;101891.47;5059143;28;45450;-77
2021/10/22 07:41:29;;;;;;;;;10.75;6.50;;;;;9.04;64.32;101889.56;5057996;28;45483;-76
2021/10/22 07:43:55;;;;;;;;;12.00;7.25;;;;;9.11;64.24;101894.38;5057925;28;45248;-75
2021/10/22 07:46:21;;;;;;;;;6.00;6.00;;;;;9.11;64.42;101894.38;5058769;28;45401;-75
2021/10/22 07:48:46;;;;;;;;;8.00;8.00;;;;;9.16;64.44;101898.16;5058814;28;45371;-75
2021/10/22 07:51:12;;;;;;;;;6.75;6.00;;;;;9.23;64.42;101895.19;5058600;28;45233;-76
2021/10/22 07:53:38;;;;;;;;;7.25;6.00;;;;;9.25;64.22;101901.34;5057685;28;45418;-76
2021/10/22 07:56:05;;;;;;;;;9.25;6.25;;;;;9.28;64.09;101908.44;5058709;28;45454;-75
2021/10/22 07:58:32;;;;;;;;;6.00;4.75;;;;;9.29;63.88;101905.94;5059120;28;45541;-75
2021/10/22 08:00:57;;;;;;;;;5.00;4.00;;;;;9.30;64.24;101904.25;5058292;28;46560;-74
2021/10/22 08:03:25;;;;;;;;;4.75;4.75;;;;;9.39;63.64;101915.22;5058669;28;45313;-80
2021/10/22 08:05:51;;;;;;;;;5.00;4.25;;;;;9.43;63.83;101918.91;5039641;28;45270;-81
2021/10/22 08:08:17;;;;;;;;;4.75;4.75;;;;;9.41;63.46;101915.31;5057407;28;45601;-78
2021/10/22 08:10:42;;;;;;;;;3.50;3.50;;;;;9.51;63.47;101932.31;5056789;28;45552;-79
2021/10/22 08:13:11;;;;;;;;;7.25;4.75;;;;;9.53;63.45;101931.66;5057390;28;45477;-88
2021/10/22 08:15:40;;;;;;;;;6.50;5.50;;;;;9.41;63.38;101912.75;5043794;28;45369;-88
2021/10/22 08:18:08;;;;;;;;;7.25;4.00;;;;;9.59;63.78;101944.09;5044052;28;45530;-85
2021/10/22 08:20:35;;;;;;;;;5.00;4.00;;;;;9.58;63.67;101943.19;5063785;28;45253;-80
2021/10/22 08:23:03;;;;;;;;;5.00;5.00;;;;;9.67;63.19;101957.53;5048318;28;45957;-76
2021/10/22 08:25:28;;;;;;;;;4.75;3.50;;;;;9.70;62.69;101963.81;5057274;28;45367;-80
2021/10/22 08:27:54;;;;;;;;;3.00;3.00;;;;;9.69;62.63;101958.53;5056674;28;45518;-76
2021/10/22 08:30:25;;;;;;;;;7.00;4.00;;;;;9.67;62.50;101962.69;5057256;28;45393;-76
2021/10/22 08:32:52;;;;;;;;;3.25;2.25;;;;;9.70;62.90;101962.91;5057317;28;45973;-78
2021/10/22 08:35:19;;;;;;;;;3.25;2.25;;;;;9.70;62.94;101965.50;5056614;28;45519;-77
2021/10/22 08:37:46;;;;;;;;;4.00;2.00;;;;;9.70;63.21;101958.66;5057025;28;45470;-79
2021/10/22 08:40:13;;;;;;;;;3.00;3.00;;;;;9.74;62.83;101970.09;5039150;28;47841;-76
2021/10/22 08:42:40;;;;;;;;;4.00;3.00;;;;;9.69;62.82;101962.03;5057555;28;45729;-77
2021/10/22 08:45:06;;;;;;;;;3.00;2.25;;;;;9.65;63.33;101949.66;5058273;28;45513;-76
2021/10/22 08:47:33;;;;;;;;;3.50;3.00;;;;;9.84;62.99;101967.31;5058091;28;45289;-77
2021/10/22 08:50:00;;;;;;;;;3.00;3.00;;;;;9.86;63.21;101965.75;5056530;28;46402;-77
2021/10/22 08:52:30;;;;;;;;;4.00;3.75;;;;;9.81;63.24;101951.59;5057594;28;45300;-76
2021/10/22 08:55:02;;;;;;;;;4.25;4.00;;;;;9.96;63.41;101974.09;5056172;28;45481;-77
2021/10/22 08:57:28;;;;;;;;;4.00;4.00;;;;;9.95;63.57;101967.13;5056761;28;45598;-77
2021/10/22 08:59:57;;;;;;;;;4.00;4.00;;;;;9.89;63.46;101952.97;5067834;27;46351;-80
2021/10/22 09:02:29;;;;;;;;;8.25;5.50;;;;;10.02;63.43;101972.81;5058170;28;45517;-79
2021/10/22 09:05:01;;;;;;;;;4.25;4.25;;;;;10.04;63.49;101983.25;5059315;28;45347;-81
2021/10/22 09:07:46;;;;;;;;;9.75;6.25;;;;;10.12;63.80;101983.78;5060340;28;45558;-76
2021/10/22 09:10:16;;;;;;;;;9.00;5.75;;;;;10.16;63.69;101986.66;5057216;28;45739;-82
2021/10/22 09:13:01;;;;;;;;;5.50;5.50;;;;;10.20;63.65;101985.16;5045143;28;45846;-78
2021/10/22 09:15:28;;;;;;;;;5.75;4.50;;;;;10.24;63.59;101989.75;5054906;28;45253;-79
2021/10/22 09:17:56;;;;;;;;;5.00;5.00;;;;;10.29;63.54;101982.28;5039600;28;45605;-78
2021/10/22 09:20:24;;;;;;;;;5.75;5.75;;;;;10.31;63.59;101989.34;5046429;28;47916;-85
2021/10/22 09:22:54;;;;;;;;;5.00;4.25;;;;;10.38;63.69;101998.44;5068206;28;45793;-77
2021/10/22 09:25:24;;;;;;;;;6.00;4.00;;;;;10.35;63.57;101993.94;5062692;28;45258;-85
2021/10/22 09:27:54;;;;;;;;;5.00;5.00;;;;;10.46;63.18;102010.19;5053239;28;45339;-78
2021/10/22 09:30:23;;;;;;;;;5.50;4.00;;;;;10.48;63.35;102005.09;5057037;28;46292;-80
2021/10/22 09:32:52;;;;;;;;;5.25;4.00;;;;;10.50;63.38;101999.22;5056970;28;45775;-82
2021/10/22 09:35:33;;;;;;;;;4.25;4.00;;;;;10.46;63.18;102012.78;5057437;28;45494;-80
2021/10/22 09:38:09;;;;;;;;;4.00;4.00;;;;;10.50;63.43;102008.69;5056922;28;45216;-80
2021/10/22 09:40:36;;;;;;;;;6.00;5.00;;;;;10.39;63.37;101984.69;5058389;28;46247;-79
2021/10/22 09:43:13;;;;;;;;;4.50;4.50;;;;;10.48;63.75;102007.69;5057350;28;45530;-80
2021/10/22 09:45:39;;;;;;;;;14.00;11.00;;;;;10.55;63.81;102008.97;5056716;28;45387;-80
2021/10/22 09:48:26;;;;;;;;;12.25;11.25;;;;;10.59;63.90;102017.03;5039411;28;45477;-80
2021/10/22 09:50:54;;;;;;;;;14.00;12.25;;;;;10.63;63.79;102011.25;5056021;28;46162;-78
2021/10/22 09:53:36;;;;;;;;;11.75;10.50;;;;;10.66;64.10;102006.28;5056918;28;45469;-79
2021/10/22 09:56:07;;;;;;;;;9.75;9.25;;;;;10.73;64.25;102009.25;5056963;28;45474;-77
2021/10/22 09:58:35;;;;;;;;;13.00;8.50;;;;;10.77;64.44;102014.72;5057549;28;45518;-78
2021/10/22 10:01:11;;;;;;;;;6.00;6.00;;;;;10.79;64.38;102022.63;5055445;28;46347;-80
2021/10/22 10:03:43;;;;;;;;;5.75;5.75;;;;;10.81;63.93;102001.19;5056426;28;45681;-79
2021/10/22 10:06:09;;;;;;;;;7.25;5.00;;;;;10.77;64.58;101993.13;5038889;28;45371;-80
2021/10/22 10:08:40;;;;;;;;;5.25;3.50;;;;;10.91;64.36;102012.13;5053428;28;46734;-81
2021/10/22 10:11:09;;;;;;;;;4.50;3.00;;;;;10.88;64.46;101996.38;5062792;28;46132;-81
2021/10/22 10:13:35;;;;;;;;;4.00;3.00;;;;;11.04;64.18;102019.88;5059742;28;45893;-79
2021/10/22 10:16:03;;;;;;;;;7.75;4.50;;;;;10.97;64.36;102002.13;5056936;28;45256;-78
2021/10/22 10:18:37;;;;;;;;;8.50;5.25;;;;;11.11;64.10;102015.97;5057090;28;45604;-79
2021/10/22 10:21:07;;;;;;;;;5.00;5.00;;;;;11.15;64.23;102028.28;5056236;28;45441;-79
2021/10/22 10:23:38;;;;;;;;;5.75;4.00;;;;;11.17;64.03;102021.50;5057355;28;45386;-78
2021/10/22 10:26:20;;;;;;;;;5.00;4.00;;;;;11.24;63.89;102021.09;5055389;28;45487;-77
2021/10/22 10:28:49;;;;;;;;;2.00;2.00;;;;;11.22;63.74;102014.03;5055787;28;45889;-77
2021/10/22 10:31:31;;;;;;;;;2.75;2.25;;;;;11.30;63.64;102029.25;5054631;28;46780;-77
2021/10/22 10:33:58;;;;;;;;;3.75;3.00;;;;;11.33;63.32;102030.25;5050730;28;45367;-77
2021/10/22 10:36:48;;;;;;;;;5.00;4.50;;;;;11.40;63.51;102027.22;5054930;28;45520;-75
2021/10/22 10:39:14;;;;;;;;;3.75;3.50;;;;;11.40;63.07;102025.50;5055569;28;46591;-77
2021/10/22 10:41:40;;;;;;;;;3.50;2.50;;;;;11.43;62.62;102027.41;5055123;28;46237;-76
2021/10/22 10:44:24;;;;;;;;;4.25;4.25;;;;;11.49;62.89;102032.97;5054110;28;45297;-78
2021/10/22 10:46:50;;;;;;;;;4.25;3.00;;;;;11.49;62.81;102037.28;5036433;28;45471;-78
2021/10/22 10:49:46;;;;;;;;;3.00;2.50;;;;;11.55;62.66;102028.16;5055709;28;45573;-74
2021/10/22 10:52:37;;;;;;;;;3.25;3.25;;;;;11.60;62.53;102020.66;5055466;28;45362;-81
2021/10/22 10:55:32;;;;;;;;;3.00;2.75;;;;;11.64;62.53;102025.22;5054853;28;45859;-79
2021/10/22 10:58:06;;;;;;;;;3.00;3.00;;;;;11.69;62.46;102018.59;5056019;28;45385;-78
2021/10/22 11:00:40;;;;;;;;;10.00;9.00;;;;;11.74;62.18;102017.16;5056039;28;45276;-77
2021/10/22 11:03:16;;;;;;;;;3.50;3.50;;;;;11.67;62.00;101990.75;5055789;28;45296;-77
2021/10/22 11:05:45;;;;;;;;;3.75;2.00;;;;;11.88;61.32;102017.09;5055784;28;45240;-79
2021/10/22 11:08:15;;;;;;;;;3.25;3.25;;;;;11.91;61.37;102020.75;5055645;28;45418;-78
2021/10/22 11:11:07;;;;;;;;;2.00;2.00;;;;;11.99;61.07;102021.25;5055597;28;45439;-77
2021/10/22 11:13:52;;;;;;;;;5.25;2.50;;;;;12.06;61.00;102025.97;5056014;28;46604;-78
2021/10/22 11:16:21;;;;;;;;;4.75;3.25;;;;;12.10;61.37;102019.25;5055397;28;45915;-78
2021/10/22 11:18:59;;;;;;;;;3.75;2.25;;;;;12.12;61.05;102009.00;5055651;28;45387;-78
2021/10/22 11:21:33;;;;;;;;;5.00;3.00;;;;;12.14;61.29;102007.38;5055555;28;45378;-78
2021/10/22 11:24:00;;;;;;;;;4.50;2.00;;;;;12.29;61.26;102018.63;5055100;28;46335;-79
2021/10/22 11:26:28;;;;;;;;;4.25;3.00;;;;;12.37;59.99;102019.06;5055187;28;45461;-78
2021/10/22 11:28:56;;;;;;;;;3.25;2.00;;;;;12.47;58.65;102018.78;5055401;28;45233;-78
2021/10/22 11:31:45;;;;;;;;;2.25;2.00;;;;;12.52;57.36;102017.34;5055761;28;45431;-80